LEVX/VGO METAR and TAF weather

Enter ICAO airport designator
Station Type Date Time Source
LEVX METAR 2021/09/24 02:00 UTC NOAA

LEVX 240200Z VRB02KT 9999 FEW054 16/15 Q1015 NOSIG


Station Type Date Time Source
LEVX Decoded METAR 2021/09/24 02:00 UTC NOAA

Vigo / Peinador, Spain (LEVX) 42-13N 008-38W 255M
Sep 23, 2021 - 10:00 PM EDT / 2021.09.24 0200 UTC
Wind: Variable at 2 MPH (2 KT):0
Visibility: greater than 7 mile(s):0
Sky conditions: mostly clear
Temperature: 60 F (16 C)
Dew Point: 59 F (15 C)
Relative Humidity: 93%
Pressure (altimeter): 29.97 in. Hg (1015 hPa)
ob: LEVX 240200Z VRB02KT 9999 FEW054 16/15 Q1015 NOSIG
cycle: 2

Station Type Date Time Source
LEVX TAF 2021/09/23 18:51 UTC NOAA

TAF
AMD TAF
AMD LEVX 231745Z 2318/2418 VRB04KT 9999 FEW040 TX24/2415Z TN15/2406Z
TEMPO 2318/2319 03010KT
TEMPO 2318/2324 SCT050TCU PROB30
TEMPO 2403/2406 3000 -RA BR PROB40
TEMPO 2406/2418 28010KT 3000 RA SHRA BKN010 SCT030TCU PROB30
TEMPO 2412/2418 3000 TS SCT030CB

Example: see airport list